Time;durP1;ratioP1;P1;durP2;ratioP2;P2;SDS_P1;SDS_P2;PMS_P1;PMS_P2;Temp;Humidity;BMP_temperature;BMP_pressure;BME280_temperature;BME280_humidity;BME280_pressure;Samples;Min_cycle;Max_cycle;Signal;HPM_P1;HPM_P2
2023/09/22 00:00:59;;;;;;;9.20;5.07;;;23.30;99.90;;;;;;4858651;29;20074;-80
2023/09/22 00:03:28;;;;;;;11.48;4.80;;;23.20;99.90;;;;;;4872159;29;20391;-81
2023/09/22 00:05:57;;;;;;;10.95;5.00;;;23.20;99.90;;;;;;4862096;29;20044;-81
2023/09/22 00:08:24;;;;;;;9.88;4.82;;;23.30;99.90;;;;;;4858593;29;20070;-82
2023/09/22 00:10:51;;;;;;;10.55;5.60;;;23.30;99.90;;;;;;4858722;29;20394;-77
2023/09/22 00:13:18;;;;;;;11.15;4.78;;;23.30;99.90;;;;;;4854989;29;20045;-77
2023/09/22 00:15:46;;;;;;;10.93;5.22;;;23.10;99.90;;;;;;4863846;29;20033;-78
2023/09/22 00:18:14;;;;;;;13.27;5.35;;;22.90;99.90;;;;;;4871424;29;20128;-80
2023/09/22 00:20:41;;;;;;;8.75;4.85;;;23.20;99.90;;;;;;4862189;29;20120;-76
2023/09/22 00:23:09;;;;;;;8.60;4.78;;;23.20;99.90;;;;;;4865237;29;20051;-77
2023/09/22 00:25:36;;;;;;;10.75;5.22;;;23.00;99.90;;;;;;4858497;29;20045;-78
2023/09/22 00:28:03;;;;;;;11.25;5.97;;;23.00;99.90;;;;;;4872196;29;20144;-77
2023/09/22 00:30:31;;;;;;;10.75;5.90;;;22.50;99.90;;;;;;4854727;29;20050;-78
2023/09/22 00:32:58;;;;;;;11.05;5.63;;;22.40;99.90;;;;;;4854733;29;20033;-79
2023/09/22 00:35:26;;;;;;;9.70;5.35;;;22.10;99.90;;;;;;4851600;29;20042;-79
2023/09/22 00:37:53;;;;;;;10.23;5.22;;;22.50;99.90;;;;;;4856662;29;20110;-79
2023/09/22 00:40:20;;;;;;;14.32;6.20;;;22.50;99.90;;;;;;4852616;29;20052;-80
2023/09/22 00:43:04;;;;;;;13.07;5.70;;;22.40;99.90;;;;;;4871966;29;20033;-78
2023/09/22 00:45:31;;;;;;;15.50;5.72;;;22.60;99.90;;;;;;4854964;29;20048;-78
2023/09/22 00:47:59;;;;;;;11.23;6.38;;;22.80;99.90;;;;;;4859972;29;20370;-80
2023/09/22 00:50:26;;;;;;;14.43;6.93;;;22.50;99.90;;;;;;4872189;29;20049;-79
2023/09/22 00:52:53;;;;;;;11.57;5.78;;;22.50;99.90;;;;;;4869465;29;20045;-78
2023/09/22 00:55:21;;;;;;;14.77;5.85;;;22.70;99.90;;;;;;4857075;29;20549;-79
2023/09/22 00:57:48;;;;;;;10.80;6.20;;;22.50;99.90;;;;;;4857212;29;20045;-79
2023/09/22 01:00:18;;;;;;;10.10;5.65;;;22.30;99.90;;;;;;4864312;29;20152;-78
2023/09/22 01:02:45;;;;;;;10.43;6.82;;;22.40;99.90;;;;;;4853820;29;20065;-79
2023/09/22 01:05:12;;;;;;;14.32;6.30;;;22.40;99.90;;;;;;4871774;29;20124;-77
2023/09/22 01:07:39;;;;;;;9.23;5.60;;;22.20;99.90;;;;;;4853695;29;20034;-77
2023/09/22 01:10:10;;;;;;;10.05;5.75;;;22.10;99.90;;;;;;4853318;29;20038;-78
2023/09/22 01:12:37;;;;;;;12.38;5.72;;;22.10;99.90;;;;;;4855353;29;20037;-79
2023/09/22 01:15:08;;;;;;;12.48;6.15;;;22.10;99.90;;;;;;4865988;29;20505;-81
2023/09/22 01:17:37;;;;;;;12.77;5.57;;;22.20;99.90;;;;;;4857079;29;20045;-81
2023/09/22 01:20:08;;;;;;;12.75;5.47;;;22.20;99.90;;;;;;4853359;29;20049;-79
2023/09/22 01:22:37;;;;;;;12.43;5.78;;;22.40;99.90;;;;;;4853960;29;20144;-81
2023/09/22 01:25:04;;;;;;;11.70;6.25;;;22.20;99.90;;;;;;4871194;29;20029;-80
2023/09/22 01:27:31;;;;;;;11.73;5.93;;;21.90;99.90;;;;;;4871667;29;20067;-80
2023/09/22 01:29:59;;;;;;;14.85;6.38;;;21.10;99.90;;;;;;4868026;29;20045;-80
2023/09/22 01:32:26;;;;;;;13.15;5.88;;;21.00;99.90;;;;;;4870074;29;20046;-80
2023/09/22 01:34:54;;;;;;;11.43;6.78;;;21.60;99.90;;;;;;4869018;29;20068;-79
2023/09/22 01:37:28;;;;;;;14.23;6.28;;;21.90;99.90;;;;;;4869191;29;20050;-80
2023/09/22 01:39:58;;;;;;;15.05;6.45;;;21.80;99.90;;;;;;4871669;29;20065;-80
2023/09/22 01:42:25;;;;;;;10.27;5.72;;;22.00;99.90;;;;;;4869372;29;20135;-81
2023/09/22 01:44:53;;;;;;;12.10;6.32;;;22.00;99.90;;;;;;4856102;29;20051;-79
2023/09/22 01:47:20;;;;;;;12.18;6.82;;;21.90;99.90;;;;;;4874751;29;20071;-80
2023/09/22 01:49:47;;;;;;;13.85;6.35;;;21.90;99.90;;;;;;4864062;29;20049;-81
2023/09/22 01:52:15;;;;;;;13.20;5.95;;;21.80;99.90;;;;;;4871623;29;20049;-78
2023/09/22 01:54:42;;;;;;;12.30;6.90;;;21.90;99.90;;;;;;4872907;29;20307;-80
2023/09/22 01:57:09;;;;;;;15.05;7.20;;;21.90;99.90;;;;;;4860696;29;20041;-80
2023/09/22 01:59:36;;;;;;;14.05;7.07;;;21.50;99.90;;;;;;4875295;29;20053;-79
2023/09/22 02:02:03;;;;;;;15.63;7.07;;;21.70;99.90;;;;;;4860732;29;20057;-80
2023/09/22 02:04:30;;;;;;;11.05;6.35;;;21.90;99.90;;;;;;4874772;29;20056;-80
2023/09/22 02:06:58;;;;;;;16.63;7.00;;;22.00;99.90;;;;;;4860502;29;20386;-78
2023/09/22 02:09:25;;;;;;;17.23;7.32;;;22.10;99.90;;;;;;4859690;29;20066;-78
2023/09/22 02:11:52;;;;;;;12.27;6.10;;;21.80;99.90;;;;;;4858084;29;20109;-79
2023/09/22 02:14:20;;;;;;;12.13;6.70;;;22.00;99.90;;;;;;4857669;29;20034;-78
2023/09/22 02:16:47;;;;;;;14.05;7.05;;;22.10;99.90;;;;;;4853899;29;20113;-79
2023/09/22 02:19:14;;;;;;;15.88;7.00;;;22.20;99.90;;;;;;4859161;29;20037;-77
2023/09/22 02:21:41;;;;;;;17.23;7.05;;;22.00;99.90;;;;;;4855511;29;20389;-79
2023/09/22 02:24:09;;;;;;;12.80;6.80;;;22.00;99.90;;;;;;4874653;29;20045;-78
2023/09/22 02:26:36;;;;;;;11.90;5.78;;;21.90;99.90;;;;;;4858115;29;20533;-78
2023/09/22 02:29:03;;;;;;;9.73;6.25;;;21.70;99.90;;;;;;4854711;29;20033;-77
2023/09/22 02:31:30;;;;;;;12.10;6.60;;;21.50;99.90;;;;;;4868764;29;20455;-77
2023/09/22 02:33:57;;;;;;;15.90;7.18;;;21.50;99.90;;;;;;4856235;29;20038;-77
2023/09/22 02:36:25;;;;;;;13.85;6.60;;;21.80;99.90;;;;;;4871779;29;20053;-78
2023/09/22 02:38:52;;;;;;;13.23;6.43;;;21.70;99.90;;;;;;4866998;29;20037;-77
2023/09/22 02:41:19;;;;;;;12.45;6.53;;;21.50;99.90;;;;;;4856144;29;20041;-77
2023/09/22 02:43:47;;;;;;;12.35;6.10;;;21.60;99.90;;;;;;4856366;29;20041;-77
2023/09/22 02:46:14;;;;;;;10.80;6.07;;;21.50;99.90;;;;;;4857076;29;20478;-76
2023/09/22 02:48:41;;;;;;;11.50;6.57;;;21.40;99.90;;;;;;4863040;29;20038;-79
2023/09/22 02:51:09;;;;;;;13.18;6.25;;;21.30;99.90;;;;;;4858318;29;20046;-79
2023/09/22 02:53:36;;;;;;;14.60;7.50;;;21.40;99.90;;;;;;4863543;29;20497;-80
2023/09/22 02:56:05;;;;;;;12.73;6.57;;;21.40;99.90;;;;;;4852944;29;20034;-81
2023/09/22 02:58:32;;;;;;;11.73;6.63;;;21.50;99.90;;;;;;4858441;29;20053;-80
2023/09/22 03:01:00;;;;;;;13.77;7.05;;;21.50;99.90;;;;;;4857187;29;20490;-80
2023/09/22 03:03:27;;;;;;;9.88;6.53;;;21.40;99.90;;;;;;4854667;29;20064;-78
2023/09/22 03:05:59;;;;;;;16.38;7.40;;;21.40;99.90;;;;;;4871639;29;20041;-78
2023/09/22 03:08:26;;;;;;;15.63;7.60;;;21.40;99.90;;;;;;4856463;29;20037;-79
2023/09/22 03:10:53;;;;;;;15.10;7.90;;;21.40;99.90;;;;;;4870075;29;20053;-80
2023/09/22 03:13:21;;;;;;;16.17;7.00;;;21.40;99.90;;;;;;4865853;29;20060;-81
2023/09/22 03:15:48;;;;;;;15.27;8.05;;;21.20;99.90;;;;;;4856678;29;20374;-81
2023/09/22 03:18:15;;;;;;;16.17;8.07;;;21.30;99.90;;;;;;4865875;29;20136;-81
2023/09/22 03:20:42;;;;;;;13.90;6.97;;;21.20;99.90;;;;;;4858158;29;20057;-78
2023/09/22 03:23:10;;;;;;;14.43;7.60;;;21.30;99.90;;;;;;4856674;29;20038;-80
2023/09/22 03:25:37;;;;;;;14.95;7.20;;;20.50;99.90;;;;;;4871188;29;20046;-80
2023/09/22 03:28:04;;;;;;;17.10;7.50;;;19.90;99.90;;;;;;4855481;29;20053;-80
2023/09/22 03:30:32;;;;;;;14.65;7.90;;;20.30;99.90;;;;;;4853113;29;20436;-81
2023/09/22 03:32:59;;;;;;;17.83;7.80;;;20.20;99.90;;;;;;4873645;29;20093;-79
2023/09/22 03:35:26;;;;;;;13.75;7.43;;;20.10;99.90;;;;;;4873484;29;20547;-80
2023/09/22 03:37:55;;;;;;;14.40;8.30;;;20.80;99.90;;;;;;4858559;29;20128;-81
2023/09/22 03:40:31;;;;;;;16.55;8.30;;;20.80;99.90;;;;;;4858667;29;20117;-80
2023/09/22 03:42:59;;;;;;;12.48;7.45;;;20.90;99.90;;;;;;4858834;29;20121;-80
2023/09/22 03:45:26;;;;;;;13.55;7.18;;;20.80;99.90;;;;;;4857539;29;20029;-79
2023/09/22 03:47:54;;;;;;;15.75;7.93;;;20.70;99.90;;;;;;4865731;29;20097;-80
2023/09/22 03:50:21;;;;;;;16.65;8.20;;;20.60;99.90;;;;;;4855842;29;20518;-80
2023/09/22 03:52:48;;;;;;;15.63;7.82;;;20.60;99.90;;;;;;4855512;29;20049;-79
2023/09/22 03:55:15;;;;;;;15.13;7.60;;;20.80;99.90;;;;;;4856126;29;20086;-78
2023/09/22 03:57:43;;;;;;;14.35;7.00;;;20.90;99.90;;;;;;4857563;29;20048;-80
2023/09/22 04:00:18;;;;;;;15.25;7.15;;;21.00;99.90;;;;;;4855795;29;20034;-79
2023/09/22 04:02:46;;;;;;;15.18;7.18;;;21.00;99.90;;;;;;4852331;29;20065;-78
2023/09/22 04:05:14;;;;;;;18.98;7.63;;;21.10;99.90;;;;;;4872412;29;20043;-78
2023/09/22 04:07:41;;;;;;;14.60;8.10;;;21.20;99.90;;;;;;4856251;29;20397;-79
2023/09/22 04:10:08;;;;;;;16.20;7.43;;;21.20;99.90;;;;;;4854942;29;20036;-80
2023/09/22 04:12:35;;;;;;;15.13;7.75;;;21.20;99.90;;;;;;4860225;29;20071;-80
2023/09/22 04:15:08;;;;;;;15.25;7.35;;;21.30;99.90;;;;;;4861347;29;20056;-78
2023/09/22 04:17:36;;;;;;;15.60;7.93;;;21.20;99.90;;;;;;4875135;29;20136;-78
2023/09/22 04:20:09;;;;;;;23.13;7.70;;;21.00;99.90;;;;;;4867301;29;20095;-79
2023/09/22 04:22:37;;;;;;;13.68;7.03;;;21.10;99.90;;;;;;4870248;29;20045;-79
2023/09/22 04:25:10;;;;;;;15.27;7.10;;;21.30;99.90;;;;;;4871722;29;20116;-78
2023/09/22 04:27:44;;;;;;;13.80;8.63;;;21.10;99.90;;;;;;4853921;29;20049;-79
2023/09/22 04:30:17;;;;;;;13.40;6.95;;;20.80;99.90;;;;;;4852290;29;20037;-81
2023/09/22 04:32:45;;;;;;;16.58;7.40;;;20.70;99.90;;;;;;4870014;29;20045;-82
2023/09/22 04:35:12;;;;;;;14.85;7.90;;;20.80;99.90;;;;;;4870601;29;20355;-83
2023/09/22 04:37:40;;;;;;;15.27;7.15;;;21.00;99.90;;;;;;4870835;29;20052;-80
2023/09/22 04:40:20;;;;;;;11.05;6.43;;;21.10;99.90;;;;;;4849697;29;20065;-78
2023/09/22 04:42:48;;;;;;;17.80;8.63;;;21.10;99.90;;;;;;4852421;29;20482;-80
2023/09/22 04:45:18;;;;;;;11.00;7.05;;;21.00;99.90;;;;;;4855805;29;20029;-81
2023/09/22 04:47:51;;;;;;;13.60;7.53;;;21.00;99.90;;;;;;4858500;29;20054;-79
2023/09/22 04:50:21;;;;;;;14.05;7.50;;;20.70;99.90;;;;;;4859803;29;20029;-81
2023/09/22 04:52:49;;;;;;;15.00;7.15;;;20.40;99.90;;;;;;4853483;29;20065;-79
2023/09/22 04:55:17;;;;;;;12.43;7.10;;;20.70;99.90;;;;;;4862459;29;20397;-77
2023/09/22 04:57:45;;;;;;;20.77;12.13;;;20.80;99.90;;;;;;4862403;29;20696;-80
2023/09/22 05:00:16;;;;;;;101.05;64.25;;;20.70;99.90;;;;;;4855199;29;20097;-80
2023/09/22 05:02:44;;;;;;;28.20;18.92;;;20.90;99.90;;;;;;4855891;29;20121;-80
2023/09/22 05:05:12;;;;;;;26.63;12.20;;;20.80;99.90;;;;;;4855500;29;20066;-81
2023/09/22 05:07:39;;;;;;;41.60;24.00;;;20.70;99.90;;;;;;4856104;29;20105;-80
2023/09/22 05:10:07;;;;;;;28.35;16.42;;;20.80;99.90;;;;;;4855901;29;20454;-82
2023/09/22 05:12:35;;;;;;;51.92;32.25;;;21.00;99.90;;;;;;4871709;29;20138;-80
2023/09/22 05:15:04;;;;;;;38.58;22.90;;;21.10;99.90;;;;;;4865635;29;20065;-78
2023/09/22 05:17:34;;;;;;;43.13;27.35;;;21.00;99.90;;;;;;4857518;29;20045;-81
2023/09/22 05:20:11;;;;;;;38.17;24.98;;;21.10;99.90;;;;;;4871405;29;20112;-82
2023/09/22 05:22:39;;;;;;;70.85;47.28;;;21.20;99.90;;;;;;4871599;29;20046;-82
2023/09/22 05:25:07;;;;;;;36.88;19.83;;;21.30;99.90;;;;;;4870316;29;20061;-81
2023/09/22 05:27:35;;;;;;;42.92;23.55;;;21.20;99.90;;;;;;4869664;29;20045;-83
2023/09/22 05:30:06;;;;;;;30.25;18.23;;;21.00;99.90;;;;;;4864840;29;20049;-83
2023/09/22 05:32:34;;;;;;;38.17;14.68;;;21.20;99.90;;;;;;4871036;29;20344;-84
2023/09/22 05:35:02;;;;;;;25.70;13.70;;;21.20;99.90;;;;;;4857339;29;20086;-82
2023/09/22 05:37:31;;;;;;;27.88;13.55;;;21.00;99.90;;;;;;4857023;29;20042;-82
2023/09/22 05:39:58;;;;;;;26.80;13.43;;;21.20;99.90;;;;;;4851707;29;20044;-79
2023/09/22 05:42:26;;;;;;;20.65;11.93;;;21.40;99.90;;;;;;4853156;29;20089;-83
2023/09/22 05:44:53;;;;;;;22.95;12.75;;;21.30;99.90;;;;;;4854202;29;20407;-80
2023/09/22 05:47:20;;;;;;;22.83;11.63;;;20.90;99.90;;;;;;4856634;29;20125;-80
2023/09/22 05:49:48;;;;;;;25.38;10.18;;;20.90;99.90;;;;;;4871359;29;20037;-81
2023/09/22 05:52:15;;;;;;;83.25;52.03;;;21.40;99.90;;;;;;4857591;29;20374;-81
2023/09/22 05:54:45;;;;;;;51.72;30.80;;;21.60;99.90;;;;;;4857231;29;20034;-80
2023/09/22 05:57:13;;;;;;;29.95;17.40;;;21.60;99.90;;;;;;4871152;29;20049;-81
2023/09/22 05:59:40;;;;;;;23.73;13.55;;;21.60;99.90;;;;;;4853302;29;20057;-78
2023/09/22 06:02:07;;;;;;;24.67;13.38;;;21.80;99.90;;;;;;4856752;29;20056;-81
2023/09/22 06:04:35;;;;;;;21.13;12.05;;;21.70;99.90;;;;;;4857147;29;20048;-81
2023/09/22 06:07:02;;;;;;;17.30;10.38;;;21.70;99.90;;;;;;4857476;29;20101;-83
2023/09/22 06:09:31;;;;;;;17.70;9.25;;;21.60;99.90;;;;;;4871549;29;20045;-81
2023/09/22 06:11:58;;;;;;;34.97;12.30;;;21.40;99.90;;;;;;4871450;29;20768;-82
2023/09/22 06:14:26;;;;;;;20.98;10.40;;;21.60;99.90;;;;;;4855319;29;20117;-82
2023/09/22 06:16:53;;;;;;;23.02;10.25;;;21.80;99.90;;;;;;4855565;29;20133;-80
2023/09/22 06:19:20;;;;;;;26.20;9.75;;;21.70;99.90;;;;;;4870802;29;20650;-80
2023/09/22 06:21:47;;;;;;;29.15;9.73;;;21.60;99.90;;;;;;4858760;29;20037;-78
2023/09/22 06:24:17;;;;;;;25.08;10.02;;;21.70;99.90;;;;;;4855830;29;20081;-79
2023/09/22 06:26:44;;;;;;;19.55;9.48;;;21.70;99.90;;;;;;4871083;29;20426;-79
2023/09/22 06:29:11;;;;;;;15.23;8.93;;;21.70;99.90;;;;;;4855985;29;20056;-79
2023/09/22 06:31:54;;;;;;;20.00;8.90;;;21.50;99.90;;;;;;4856539;29;20132;-78
2023/09/22 06:34:22;;;;;;;22.73;9.55;;;21.60;99.90;;;;;;4859917;29;20534;-77
2023/09/22 06:36:49;;;;;;;23.80;9.65;;;21.60;99.90;;;;;;4859708;29;20030;-78
2023/09/22 06:39:16;;;;;;;25.83;11.25;;;21.60;99.90;;;;;;4871744;29;20037;-78
2023/09/22 06:41:44;;;;;;;18.88;9.63;;;21.10;99.90;;;;;;4852454;29;20041;-79
2023/09/22 06:44:11;;;;;;;19.58;9.98;;;21.50;99.90;;;;;;4872843;29;20098;-78
2023/09/22 06:46:39;;;;;;;20.23;9.95;;;21.70;99.90;;;;;;4856437;29;20435;-80
2023/09/22 06:49:09;;;;;;;20.40;10.10;;;21.60;99.90;;;;;;4854560;29;20085;-79
2023/09/22 06:51:41;;;;;;;17.38;10.70;;;21.70;99.90;;;;;;4857503;29;20041;-78
2023/09/22 06:54:08;;;;;;;21.10;9.90;;;21.90;99.90;;;;;;4855413;29;20112;-77
2023/09/22 06:56:36;;;;;;;18.58;9.45;;;22.00;99.90;;;;;;4855910;29;20052;-77
2023/09/22 06:59:16;;;;;;;22.08;9.77;;;22.10;99.90;;;;;;4857858;29;20042;-79
2023/09/22 07:01:43;;;;;;;14.52;8.77;;;21.90;99.90;;;;;;4873709;29;20078;-80
2023/09/22 07:04:12;;;;;;;14.00;8.02;;;21.60;99.90;;;;;;4865995;29;20381;-79
2023/09/22 07:06:41;;;;;;;17.57;9.20;;;21.90;99.90;;;;;;4859139;29;20366;-78
2023/09/22 07:09:11;;;;;;;21.45;9.82;;;22.20;99.90;;;;;;4874322;29;20055;-78
2023/09/22 07:11:40;;;;;;;18.10;8.65;;;22.50;99.90;;;;;;4859503;29;20045;-79
2023/09/22 07:14:15;;;;;;;18.98;9.02;;;22.50;99.90;;;;;;4855419;29;20049;-78
2023/09/22 07:16:42;;;;;;;16.17;8.52;;;22.60;99.90;;;;;;4855110;29;20056;-79
2023/09/22 07:19:11;;;;;;;18.27;9.27;;;22.70;99.90;;;;;;4854881;29;20046;-78
2023/09/22 07:21:38;;;;;;;20.63;8.93;;;22.90;99.90;;;;;;4855695;29;20049;-78
2023/09/22 07:24:06;;;;;;;19.75;8.98;;;23.10;99.90;;;;;;4855237;29;20374;-77
2023/09/22 07:26:35;;;;;;;23.00;9.45;;;23.00;99.90;;;;;;4853844;29;20056;-76
2023/09/22 07:29:02;;;;;;;19.33;9.18;;;23.00;99.90;;;;;;4854807;29;20041;-80
2023/09/22 07:31:30;;;;;;;16.02;7.75;;;23.00;99.90;;;;;;4866232;29;20044;-79
2023/09/22 07:33:58;;;;;;;16.23;8.32;;;23.10;99.90;;;;;;4852953;29;20049;-77
2023/09/22 07:36:28;;;;;;;16.80;7.82;;;23.00;99.90;;;;;;4857171;29;20038;-78
2023/09/22 07:38:56;;;;;;;16.70;8.13;;;23.20;99.90;;;;;;4857052;29;20430;-78
2023/09/22 07:41:31;;;;;;;15.73;7.88;;;23.20;99.90;;;;;;4853488;29;20045;-78
2023/09/22 07:43:58;;;;;;;13.98;7.55;;;23.20;99.90;;;;;;4871160;29;20534;-77
2023/09/22 07:46:26;;;;;;;11.07;6.75;;;23.10;99.90;;;;;;4855160;29;20037;-79
2023/09/22 07:48:53;;;;;;;12.35;7.20;;;23.20;99.90;;;;;;4874078;29;20101;-78
2023/09/22 07:51:22;;;;;;;11.00;7.32;;;23.20;99.90;;;;;;4858236;29;20041;-79
2023/09/22 07:53:49;;;;;;;14.40;7.78;;;23.40;99.90;;;;;;4866940;29;20377;-80
2023/09/22 07:56:18;;;;;;;11.80;6.43;;;23.30;99.90;;;;;;4858556;29;20045;-79
2023/09/22 07:58:45;;;;;;;14.98;7.63;;;23.30;99.90;;;;;;4859409;29;20052;-79
2023/09/22 08:01:24;;;;;;;14.43;7.22;;;23.50;99.90;;;;;;4856955;29;20046;-79
2023/09/22 08:03:52;;;;;;;12.20;6.70;;;23.50;99.90;;;;;;4870561;29;20049;-78
2023/09/22 08:06:19;;;;;;;11.05;5.93;;;23.80;99.90;;;;;;4858121;29;20045;-79
2023/09/22 08:08:49;;;;;;;9.82;6.20;;;23.90;99.90;;;;;;4856373;29;20398;-78
2023/09/22 08:11:17;;;;;;;11.65;5.80;;;23.80;99.90;;;;;;4872260;29;20116;-78
2023/09/22 08:13:47;;;;;;;13.35;6.30;;;24.10;99.90;;;;;;4872733;29;20409;-78
2023/09/22 08:16:16;;;;;;;;;;;24.10;99.90;;;;;;4870293;29;20144;-77
2023/09/22 08:18:43;;;;;;;12.50;6.18;;;24.30;99.90;;;;;;4868532;29;19927;-76
2023/09/22 08:21:11;;;;;;;16.63;6.18;;;24.30;99.90;;;;;;4855298;29;20105;-79
2023/09/22 08:23:38;;;;;;;10.38;5.68;;;24.40;99.90;;;;;;4853844;29;20107;-77
2023/09/22 08:26:17;;;;;;;11.48;6.15;;;24.30;99.90;;;;;;4853879;29;20029;-78
2023/09/22 08:28:45;;;;;;;9.98;5.47;;;24.50;99.90;;;;;;4856069;29;20586;-79
2023/09/22 08:31:14;;;;;;;9.15;5.53;;;24.70;99.90;;;;;;4851994;29;20042;-78
2023/09/22 08:33:41;;;;;;;7.65;5.57;;;24.90;99.90;;;;;;4867072;29;20336;-79
2023/09/22 08:36:08;;;;;;;9.82;5.70;;;25.10;99.90;;;;;;4854438;29;20073;-79
2023/09/22 08:38:35;;;;;;;9.88;5.45;;;24.90;99.90;;;;;;4856878;29;20047;-80
2023/09/22 08:41:06;;;;;;;12.60;5.45;;;24.80;99.90;;;;;;4872624;29;20042;-79
2023/09/22 08:43:36;;;;;;;12.70;5.30;;;24.80;99.90;;;;;;4854586;29;20045;-80
2023/09/22 08:46:04;;;;;;;9.05;5.75;;;25.00;99.90;;;;;;4856470;29;20075;-78
2023/09/22 08:48:31;;;;;;;12.43;5.55;;;25.20;99.90;;;;;;4854661;29;20083;-77
2023/09/22 08:51:18;;;;;;;8.85;5.10;;;25.10;99.90;;;;;;4850474;29;20158;-78
2023/09/22 08:53:45;;;;;;;16.63;5.68;;;25.30;99.90;;;;;;4857039;29;20056;-78
2023/09/22 08:56:14;;;;;;;11.27;6.30;;;25.20;99.90;;;;;;4870891;29;20040;-76
2023/09/22 08:58:41;;;;;;;9.77;5.55;;;25.30;99.90;;;;;;4871577;29;20125;-77
2023/09/22 09:01:10;;;;;;;9.93;5.47;;;25.60;99.90;;;;;;4853993;29;20738;-77
2023/09/22 09:03:38;;;;;;;11.13;5.87;;;25.70;99.90;;;;;;4852751;29;20052;-77
2023/09/22 09:06:07;;;;;;;9.43;5.90;;;25.90;99.90;;;;;;4870959;29;20049;-78
2023/09/22 09:08:34;;;;;;;12.55;6.47;;;25.90;99.90;;;;;;4852969;29;20050;-79
2023/09/22 09:11:10;;;;;;;11.00;6.03;;;26.10;99.90;;;;;;4860591;29;20367;-78
2023/09/22 09:13:38;;;;;;;14.88;6.40;;;26.00;99.90;;;;;;4855611;29;20041;-79
2023/09/22 09:16:07;;;;;;;11.80;5.78;;;26.20;99.90;;;;;;4868581;29;20037;-79
2023/09/22 09:18:35;;;;;;;11.00;6.03;;;26.30;99.90;;;;;;4870703;29;20068;-79
2023/09/22 09:21:06;;;;;;;9.00;5.40;;;26.20;99.90;;;;;;4870211;29;20162;-79
2023/09/22 09:23:33;;;;;;;10.23;5.40;;;26.20;99.90;;;;;;4855065;29;20038;-79
2023/09/22 09:26:01;;;;;;;15.18;6.47;;;26.60;99.90;;;;;;4850075;29;20471;-78
2023/09/22 09:28:29;;;;;;;15.77;5.68;;;26.90;99.90;;;;;;4853356;29;20045;-78
2023/09/22 09:30:58;;;;;;;10.23;4.80;;;27.00;99.90;;;;;;4851405;29;20041;-80
2023/09/22 09:33:31;;;;;;;8.73;5.85;;;26.90;99.90;;;;;;4853501;29;20500;-78
2023/09/22 09:36:00;;;;;;;12.98;6.03;;;26.90;99.90;;;;;;4854639;29;20515;-76
2023/09/22 09:38:28;;;;;;;10.38;5.63;;;26.90;99.90;;;;;;4855457;29;20430;-77
2023/09/22 09:40:58;;;;;;;10.73;5.15;;;27.00;99.90;;;;;;4855480;29;20034;-77
2023/09/22 09:43:26;;;;;;;12.20;5.03;;;27.30;99.90;;;;;;4850808;29;20044;-78
2023/09/22 09:45:59;;;;;;;14.80;5.35;;;27.60;99.90;;;;;;4871435;29;20049;-79
2023/09/22 09:48:27;;;;;;;9.38;5.22;;;27.60;99.80;;;;;;4854571;29;20124;-78
2023/09/22 09:50:59;;;;;;;9.38;4.97;;;27.80;99.60;;;;;;4850941;29;20117;-80
2023/09/22 09:53:44;;;;;;;12.23;5.53;;;27.80;99.60;;;;;;4864520;29;20038;-79
2023/09/22 09:56:14;;;;;;;12.50;6.07;;;27.80;99.90;;;;;;4870958;29;20049;-79
2023/09/22 09:58:42;;;;;;;11.15;5.07;;;28.00;99.60;;;;;;4851749;29;20486;-80
2023/09/22 10:01:09;;;;;;;10.05;4.78;;;28.10;98.90;;;;;;4853643;29;20478;-80
2023/09/22 10:03:42;;;;;;;10.55;4.90;;;28.20;97.90;;;;;;4868079;29;20058;-82
2023/09/22 10:06:13;;;;;;;9.30;4.82;;;28.10;97.50;;;;;;4856147;29;20037;-79
2023/09/22 10:08:41;;;;;;;10.07;5.25;;;28.10;97.10;;;;;;4867080;29;20045;-81
2023/09/22 10:11:11;;;;;;;9.95;4.20;;;28.10;97.90;;;;;;4859310;29;20489;-80
2023/09/22 10:13:38;;;;;;;;;;;27.90;98.00;;;;;;4873985;29;20049;-79
2023/09/22 10:16:08;;;;;;;11.25;6.45;;;28.20;96.90;;;;;;4857228;29;19926;-78
2023/09/22 10:18:45;;;;;;;13.82;5.70;;;28.40;97.20;;;;;;4859341;29;20439;-80
2023/09/22 10:21:37;;;;;;;11.10;5.28;;;28.50;96.00;;;;;;4858151;29;20037;-80
2023/09/22 10:24:14;;;;;;;11.13;5.82;;;28.90;95.30;;;;;;4858396;29;20040;-80
2023/09/22 10:26:53;;;;;;;11.32;4.90;;;29.10;95.20;;;;;;4859166;29;20049;-82
2023/09/22 10:29:33;;;;;;;13.65;4.80;;;29.20;94.60;;;;;;4856582;29;20041;-79
2023/09/22 10:32:17;;;;;;;8.70;4.70;;;29.30;94.50;;;;;;4872048;29;20038;-80
2023/09/22 10:34:57;;;;;;;8.85;5.80;;;29.40;94.20;;;;;;4859760;29;20044;-79
2023/09/22 10:37:27;;;;;;;14.25;4.78;;;29.40;94.30;;;;;;4856711;29;20033;-79
2023/09/22 10:39:55;;;;;;;11.73;5.03;;;29.50;94.10;;;;;;4858468;29;20056;-78
2023/09/22 10:42:24;;;;;;;8.13;4.40;;;29.40;94.80;;;;;;4870614;29;20056;-82
2023/09/22 10:45:03;;;;;;;11.15;4.47;;;29.70;94.40;;;;;;4873843;29;20068;-80
2023/09/22 10:47:38;;;;;;;12.85;4.95;;;29.80;93.80;;;;;;4858095;29;20500;-79
2023/09/22 10:50:15;;;;;;;7.65;4.25;;;29.90;93.30;;;;;;4856618;29;20535;-80
2023/09/22 10:53:05;;;;;;;7.90;4.72;;;29.80;92.90;;;;;;4855064;29;20048;-80
2023/09/22 10:55:34;;;;;;;;;;;29.90;93.20;;;;;;4859706;29;20486;-79
2023/09/22 10:58:08;;;;;;;11.32;4.50;;;29.80;93.20;;;;;;4855634;29;20042;-79
2023/09/22 11:00:42;;;;;;;14.15;5.55;;;30.00;92.80;;;;;;4874343;29;20068;-79
2023/09/22 11:03:14;;;;;;;11.25;6.05;;;30.00;92.90;;;;;;4856823;29;20053;-80
2023/09/22 11:05:43;;;;;;;15.20;5.22;;;30.00;92.50;;;;;;4853449;29;20116;-80
2023/09/22 11:08:14;;;;;;;10.13;4.80;;;29.50;93.40;;;;;;4858817;29;20128;-78
2023/09/22 11:10:46;;;;;;;10.38;4.82;;;29.80;92.90;;;;;;4858490;29;20371;-81
2023/09/22 11:13:14;;;;;;;10.15;5.10;;;30.30;92.40;;;;;;4854203;29;20045;-79
2023/09/22 11:15:58;;;;;;;12.60;5.50;;;30.60;91.90;;;;;;4858008;29;20037;-78
2023/09/22 11:18:32;;;;;;;12.85;5.75;;;30.90;91.60;;;;;;4851920;29;20037;-79
2023/09/22 11:21:05;;;;;;;10.93;5.43;;;30.90;91.40;;;;;;4858774;29;20400;-80
2023/09/22 11:23:35;;;;;;;11.70;4.68;;;31.00;91.30;;;;;;4856962;29;20049;-80
2023/09/22 11:26:13;;;;;;;10.55;4.40;;;30.90;90.70;;;;;;4852100;29;20064;-78
2023/09/22 11:28:45;;;;;;;11.85;4.60;;;31.10;90.40;;;;;;4858259;29;20045;-79
2023/09/22 11:31:18;;;;;;;9.38;4.45;;;31.10;90.20;;;;;;4855161;29;20038;-80
2023/09/22 11:33:59;;;;;;;13.80;4.93;;;31.10;90.10;;;;;;4870273;29;20118;-80
2023/09/22 11:36:26;;;;;;;9.23;4.72;;;31.30;89.70;;;;;;4869692;29;20097;-77
2023/09/22 11:38:56;;;;;;;13.20;4.68;;;32.40;86.20;;;;;;4854875;29;20034;-82
2023/09/22 11:41:23;;;;;;;12.80;4.57;;;32.70;84.60;;;;;;4855439;29;20044;-80
2023/09/22 11:43:52;;;;;;;10.27;5.00;;;32.20;87.20;;;;;;4859061;29;20033;-79
2023/09/22 11:46:22;;;;;;;9.43;4.90;;;32.10;86.10;;;;;;4846882;29;20045;-79
2023/09/22 11:48:51;;;;;;;11.32;4.47;;;32.00;85.70;;;;;;4850199;29;20046;-78
2023/09/22 11:51:19;;;;;;;15.27;4.43;;;31.80;86.30;;;;;;4857070;29;20038;-77
2023/09/22 11:53:47;;;;;;;11.88;4.68;;;31.60;85.20;;;;;;4855045;29;20093;-79
2023/09/22 11:56:15;;;;;;;11.18;5.32;;;31.70;85.00;;;;;;4871619;29;20415;-77
2023/09/22 11:58:43;;;;;;;14.55;5.07;;;32.00;85.00;;;;;;4856419;29;20049;-78
2023/09/22 12:01:10;;;;;;;8.80;5.35;;;32.10;83.50;;;;;;4855261;29;20033;-81
2023/09/22 12:03:37;;;;;;;15.88;5.00;;;32.20;82.80;;;;;;4872613;29;20114;-78
2023/09/22 12:06:04;;;;;;;9.82;4.57;;;32.10;83.40;;;;;;4856087;29;20363;-78
2023/09/22 12:08:32;;;;;;;13.00;5.88;;;32.30;82.80;;;;;;4853892;29;20038;-79
2023/09/22 12:11:00;;;;;;;13.60;5.18;;;32.40;82.00;;;;;;4857434;29;20534;-78
2023/09/22 12:13:28;;;;;;;14.63;4.78;;;32.50;81.90;;;;;;4856454;29;20444;-78
2023/09/22 12:15:55;;;;;;;9.98;4.50;;;32.20;81.80;;;;;;4854849;29;20049;-78
2023/09/22 12:18:23;;;;;;;10.15;4.65;;;32.30;81.20;;;;;;4871735;29;20053;-78
2023/09/22 12:20:50;;;;;;;16.05;5.45;;;32.30;82.60;;;;;;4855211;29;20105;-79
2023/09/22 12:23:17;;;;;;;11.77;5.63;;;32.40;81.40;;;;;;4854355;29;20112;-79
2023/09/22 12:25:45;;;;;;;10.75;5.55;;;32.50;80.20;;;;;;4857112;29;20048;-78
2023/09/22 12:28:13;;;;;;;9.10;4.32;;;32.70;81.10;;;;;;4856210;29;20136;-78
2023/09/22 12:30:40;;;;;;;14.15;4.53;;;32.70;79.00;;;;;;4870258;29;20097;-79
2023/09/22 12:33:07;;;;;;;15.70;4.50;;;32.70;78.30;;;;;;4856825;29;20041;-78
2023/09/22 12:35:34;;;;;;;13.07;4.55;;;32.70;78.30;;;;;;4850950;29;20043;-78
2023/09/22 12:38:02;;;;;;;9.20;4.13;;;32.80;79.10;;;;;;4854081;29;20057;-80
2023/09/22 12:40:29;;;;;;;10.40;4.88;;;32.90;78.50;;;;;;4856067;29;20037;-77
2023/09/22 12:42:56;;;;;;;12.15;4.60;;;32.70;78.40;;;;;;4868792;29;20046;-78
2023/09/22 12:45:23;;;;;;;11.05;6.03;;;32.80;78.30;;;;;;4871918;29;20038;-76
2023/09/22 12:47:51;;;;;;;10.82;5.22;;;33.20;77.50;;;;;;4857923;29;20041;-80